sensor_id;sensor_type;location;lat;lon;timestamp;P1;durP1;ratioP1;P2;durP2;ratioP2
26014;SDS011;13793;55.388;37.844;2022-12-08T00:01:36;15.63;;;8.23;;
26014;SDS011;13793;55.388;37.844;2022-12-08T00:04:06;13.75;;;8.20;;
26014;SDS011;13793;55.388;37.844;2022-12-08T00:06:38;13.20;;;7.35;;
26014;SDS011;13793;55.388;37.844;2022-12-08T00:09:36;14.98;;;6.97;;
26014;SDS011;13793;55.388;37.844;2022-12-08T00:12:04;13.70;;;7.83;;
26014;SDS011;13793;55.388;37.844;2022-12-08T00:14:46;17.55;;;9.20;;
26014;SDS011;13793;55.388;37.844;2022-12-08T00:17:18;17.15;;;8.55;;
26014;SDS011;13793;55.388;37.844;2022-12-08T00:19:48;17.57;;;9.58;;
26014;SDS011;13793;55.388;37.844;2022-12-08T00:22:19;14.68;;;7.92;;
26014;SDS011;13793;55.388;37.844;2022-12-08T00:24:49;16.12;;;8.10;;
26014;SDS011;13793;55.388;37.844;2022-12-08T00:27:20;15.50;;;8.10;;
26014;SDS011;13793;55.388;37.844;2022-12-08T00:29:50;15.72;;;8.28;;
26014;SDS011;13793;55.388;37.844;2022-12-08T00:32:21;18.48;;;9.38;;
26014;SDS011;13793;55.388;37.844;2022-12-08T00:34:52;16.15;;;8.70;;
26014;SDS011;13793;55.388;37.844;2022-12-08T00:37:22;18.48;;;8.90;;
26014;SDS011;13793;55.388;37.844;2022-12-08T00:39:53;17.32;;;9.05;;
26014;SDS011;13793;55.388;37.844;2022-12-08T00:42:23;18.52;;;9.00;;
26014;SDS011;13793;55.388;37.844;2022-12-08T00:44:54;16.23;;;8.10;;
26014;SDS011;13793;55.388;37.844;2022-12-08T00:47:25;16.97;;;7.47;;
26014;SDS011;13793;55.388;37.844;2022-12-08T00:49:56;19.77;;;9.38;;
26014;SDS011;13793;55.388;37.844;2022-12-08T00:52:26;15.25;;;8.13;;
26014;SDS011;13793;55.388;37.844;2022-12-08T00:54:57;16.52;;;8.63;;
26014;SDS011;13793;55.388;37.844;2022-12-08T00:57:29;16.60;;;8.93;;
26014;SDS011;13793;55.388;37.844;2022-12-08T01:00:00;18.27;;;9.10;;
26014;SDS011;13793;55.388;37.844;2022-12-08T01:02:31;16.32;;;8.93;;
26014;SDS011;13793;55.388;37.844;2022-12-08T01:05:02;16.95;;;8.98;;
26014;SDS011;13793;55.388;37.844;2022-12-08T01:07:33;18.52;;;8.70;;
26014;SDS011;13793;55.388;37.844;2022-12-08T01:10:04;18.17;;;9.10;;
26014;SDS011;13793;55.388;37.844;2022-12-08T01:12:36;20.77;;;9.00;;
26014;SDS011;13793;55.388;37.844;2022-12-08T01:15:07;19.02;;;8.80;;
26014;SDS011;13793;55.388;37.844;2022-12-08T01:17:38;20.45;;;8.50;;
26014;SDS011;13793;55.388;37.844;2022-12-08T01:20:09;18.02;;;9.45;;
26014;SDS011;13793;55.388;37.844;2022-12-08T01:22:40;16.15;;;9.03;;
26014;SDS011;13793;55.388;37.844;2022-12-08T01:25:10;17.83;;;8.33;;
26014;SDS011;13793;55.388;37.844;2022-12-08T01:27:41;17.92;;;8.78;;
26014;SDS011;13793;55.388;37.844;2022-12-08T01:30:11;17.02;;;8.73;;
26014;SDS011;13793;55.388;37.844;2022-12-08T01:32:42;16.30;;;8.83;;
26014;SDS011;13793;55.388;37.844;2022-12-08T01:35:13;16.77;;;8.77;;
26014;SDS011;13793;55.388;37.844;2022-12-08T01:37:43;17.27;;;9.48;;
26014;SDS011;13793;55.388;37.844;2022-12-08T01:40:17;18.12;;;9.03;;
26014;SDS011;13793;55.388;37.844;2022-12-08T01:42:48;18.12;;;9.50;;
26014;SDS011;13793;55.388;37.844;2022-12-08T01:45:32;16.57;;;9.13;;
26014;SDS011;13793;55.388;37.844;2022-12-08T01:48:07;17.55;;;8.10;;
26014;SDS011;13793;55.388;37.844;2022-12-08T01:50:35;18.57;;;9.35;;
26014;SDS011;13793;55.388;37.844;2022-12-08T01:53:08;14.50;;;6.90;;
26014;SDS011;13793;55.388;37.844;2022-12-08T01:55:43;18.40;;;9.80;;
26014;SDS011;13793;55.388;37.844;2022-12-08T01:58:20;20.27;;;9.80;;
26014;SDS011;13793;55.388;37.844;2022-12-08T02:00:54;22.23;;;9.40;;
26014;SDS011;13793;55.388;37.844;2022-12-08T02:03:30;19.37;;;9.70;;
26014;SDS011;13793;55.388;37.844;2022-12-08T02:06:02;18.92;;;9.23;;
26014;SDS011;13793;55.388;37.844;2022-12-08T02:08:33;18.27;;;8.70;;
26014;SDS011;13793;55.388;37.844;2022-12-08T02:11:07;15.63;;;9.03;;
26014;SDS011;13793;55.388;37.844;2022-12-08T02:13:37;16.80;;;10.03;;
26014;SDS011;13793;55.388;37.844;2022-12-08T02:16:22;19.47;;;9.30;;
26014;SDS011;13793;55.388;37.844;2022-12-08T02:21:57;18.60;;;9.77;;
26014;SDS011;13793;55.388;37.844;2022-12-08T02:24:44;17.13;;;9.60;;
26014;SDS011;13793;55.388;37.844;2022-12-08T02:30:37;17.12;;;8.78;;
26014;SDS011;13793;55.388;37.844;2022-12-08T02:33:25;18.40;;;8.50;;
26014;SDS011;13793;55.388;37.844;2022-12-08T02:36:06;15.67;;;8.77;;
26014;SDS011;13793;55.388;37.844;2022-12-08T02:41:52;16.35;;;8.83;;
26014;SDS011;13793;55.388;37.844;2022-12-08T02:44:28;20.68;;;9.75;;
26014;SDS011;13793;55.388;37.844;2022-12-08T02:47:11;18.92;;;8.83;;
26014;SDS011;13793;55.388;37.844;2022-12-08T02:49:42;13.58;;;7.67;;
26014;SDS011;13793;55.388;37.844;2022-12-08T02:54:52;14.95;;;8.88;;
26014;SDS011;13793;55.388;37.844;2022-12-08T03:00:28;19.62;;;10.10;;
26014;SDS011;13793;55.388;37.844;2022-12-08T03:03:17;16.67;;;9.05;;
26014;SDS011;13793;55.388;37.844;2022-12-08T03:06:02;17.15;;;8.13;;
26014;SDS011;13793;55.388;37.844;2022-12-08T03:08:45;18.03;;;8.80;;
26014;SDS011;13793;55.388;37.844;2022-12-08T03:13:58;18.43;;;9.10;;
26014;SDS011;13793;55.388;37.844;2022-12-08T03:16:30;16.17;;;8.57;;
26014;SDS011;13793;55.388;37.844;2022-12-08T03:19:23;17.10;;;8.13;;
26014;SDS011;13793;55.388;37.844;2022-12-08T03:21:59;17.37;;;8.75;;
26014;SDS011;13793;55.388;37.844;2022-12-08T03:24:34;20.67;;;9.27;;
26014;SDS011;13793;55.388;37.844;2022-12-08T03:27:07;18.57;;;9.68;;
26014;SDS011;13793;55.388;37.844;2022-12-08T03:29:39;19.17;;;9.48;;
26014;SDS011;13793;55.388;37.844;2022-12-08T03:34:50;17.50;;;8.98;;
26014;SDS011;13793;55.388;37.844;2022-12-08T03:37:21;16.65;;;9.35;;
26014;SDS011;13793;55.388;37.844;2022-12-08T03:39:52;19.83;;;9.00;;
26014;SDS011;13793;55.388;37.844;2022-12-08T03:42:22;16.27;;;8.87;;
26014;SDS011;13793;55.388;37.844;2022-12-08T03:44:53;19.37;;;9.37;;
26014;SDS011;13793;55.388;37.844;2022-12-08T03:47:24;17.90;;;9.63;;
26014;SDS011;13793;55.388;37.844;2022-12-08T03:49:54;18.37;;;9.45;;
26014;SDS011;13793;55.388;37.844;2022-12-08T03:52:25;20.72;;;9.60;;
26014;SDS011;13793;55.388;37.844;2022-12-08T03:54:56;19.80;;;9.53;;
26014;SDS011;13793;55.388;37.844;2022-12-08T03:57:29;17.32;;;7.17;;
26014;SDS011;13793;55.388;37.844;2022-12-08T04:00:00;18.65;;;8.70;;
26014;SDS011;13793;55.388;37.844;2022-12-08T04:02:32;17.85;;;8.45;;
26014;SDS011;13793;55.388;37.844;2022-12-08T04:05:03;17.85;;;8.98;;
26014;SDS011;13793;55.388;37.844;2022-12-08T04:07:34;22.17;;;9.13;;
26014;SDS011;13793;55.388;37.844;2022-12-08T04:10:05;20.77;;;8.80;;
26014;SDS011;13793;55.388;37.844;2022-12-08T04:12:36;20.00;;;8.77;;
26014;SDS011;13793;55.388;37.844;2022-12-08T04:15:07;17.70;;;9.83;;
26014;SDS011;13793;55.388;37.844;2022-12-08T04:17:38;17.07;;;8.88;;
26014;SDS011;13793;55.388;37.844;2022-12-08T04:20:09;16.80;;;9.27;;
26014;SDS011;13793;55.388;37.844;2022-12-08T04:22:40;20.13;;;9.60;;
26014;SDS011;13793;55.388;37.844;2022-12-08T04:25:11;21.97;;;9.13;;
26014;SDS011;13793;55.388;37.844;2022-12-08T04:27:42;17.65;;;8.93;;
26014;SDS011;13793;55.388;37.844;2022-12-08T04:30:14;18.05;;;9.30;;
26014;SDS011;13793;55.388;37.844;2022-12-08T04:32:45;17.80;;;8.88;;
26014;SDS011;13793;55.388;37.844;2022-12-08T04:35:16;19.20;;;8.50;;
26014;SDS011;13793;55.388;37.844;2022-12-08T04:37:46;19.70;;;8.90;;
26014;SDS011;13793;55.388;37.844;2022-12-08T04:40:17;16.80;;;9.07;;
26014;SDS011;13793;55.388;37.844;2022-12-08T04:42:48;16.43;;;8.20;;
26014;SDS011;13793;55.388;37.844;2022-12-08T04:45:19;21.48;;;8.73;;
26014;SDS011;13793;55.388;37.844;2022-12-08T04:47:50;24.18;;;9.40;;
26014;SDS011;13793;55.388;37.844;2022-12-08T04:50:22;23.92;;;8.90;;
26014;SDS011;13793;55.388;37.844;2022-12-08T04:52:52;17.42;;;8.50;;
26014;SDS011;13793;55.388;37.844;2022-12-08T04:55:23;19.98;;;9.25;;
26014;SDS011;13793;55.388;37.844;2022-12-08T04:57:54;20.70;;;8.98;;
26014;SDS011;13793;55.388;37.844;2022-12-08T05:00:24;20.57;;;9.40;;
26014;SDS011;13793;55.388;37.844;2022-12-08T05:02:55;24.25;;;9.00;;
26014;SDS011;13793;55.388;37.844;2022-12-08T05:05:26;16.60;;;9.20;;
26014;SDS011;13793;55.388;37.844;2022-12-08T05:07:57;18.90;;;10.98;;
26014;SDS011;13793;55.388;37.844;2022-12-08T05:10:28;25.60;;;12.43;;
26014;SDS011;13793;55.388;37.844;2022-12-08T05:12:58;26.80;;;11.88;;
26014;SDS011;13793;55.388;37.844;2022-12-08T05:15:29;28.38;;;12.50;;
26014;SDS011;13793;55.388;37.844;2022-12-08T05:17:59;25.40;;;11.78;;
26014;SDS011;13793;55.388;37.844;2022-12-08T05:20:30;25.82;;;12.03;;
26014;SDS011;13793;55.388;37.844;2022-12-08T05:23:01;22.00;;;10.60;;
26014;SDS011;13793;55.388;37.844;2022-12-08T05:25:32;20.17;;;10.60;;
26014;SDS011;13793;55.388;37.844;2022-12-08T05:28:03;17.70;;;8.18;;
26014;SDS011;13793;55.388;37.844;2022-12-08T05:30:33;18.85;;;9.08;;
26014;SDS011;13793;55.388;37.844;2022-12-08T05:33:04;16.53;;;8.57;;
26014;SDS011;13793;55.388;37.844;2022-12-08T05:35:35;21.27;;;9.00;;
26014;SDS011;13793;55.388;37.844;2022-12-08T05:38:05;15.60;;;8.15;;
26014;SDS011;13793;55.388;37.844;2022-12-08T05:40:41;18.82;;;8.68;;
26014;SDS011;13793;55.388;37.844;2022-12-08T05:43:11;16.00;;;8.10;;
26014;SDS011;13793;55.388;37.844;2022-12-08T05:45:42;15.23;;;8.28;;
26014;SDS011;13793;55.388;37.844;2022-12-08T05:48:13;17.25;;;8.43;;
26014;SDS011;13793;55.388;37.844;2022-12-08T05:50:47;18.15;;;8.88;;
26014;SDS011;13793;55.388;37.844;2022-12-08T05:53:18;18.82;;;10.23;;
26014;SDS011;13793;55.388;37.844;2022-12-08T05:55:49;16.75;;;9.98;;
26014;SDS011;13793;55.388;37.844;2022-12-08T05:58:20;13.18;;;6.97;;
26014;SDS011;13793;55.388;37.844;2022-12-08T06:00:51;18.50;;;8.30;;
26014;SDS011;13793;55.388;37.844;2022-12-08T06:03:22;18.70;;;8.53;;
26014;SDS011;13793;55.388;37.844;2022-12-08T06:05:56;17.30;;;9.60;;
26014;SDS011;13793;55.388;37.844;2022-12-08T06:08:26;26.48;;;9.10;;
26014;SDS011;13793;55.388;37.844;2022-12-08T06:10:57;19.65;;;9.13;;
26014;SDS011;13793;55.388;37.844;2022-12-08T06:13:28;16.53;;;8.40;;
26014;SDS011;13793;55.388;37.844;2022-12-08T06:16:05;19.70;;;8.50;;
26014;SDS011;13793;55.388;37.844;2022-12-08T06:18:36;21.93;;;8.58;;
26014;SDS011;13793;55.388;37.844;2022-12-08T06:21:07;17.40;;;8.45;;
26014;SDS011;13793;55.388;37.844;2022-12-08T06:23:39;17.32;;;8.78;;
26014;SDS011;13793;55.388;37.844;2022-12-08T06:26:11;16.30;;;8.50;;
26014;SDS011;13793;55.388;37.844;2022-12-08T06:28:42;17.52;;;9.28;;
26014;SDS011;13793;55.388;37.844;2022-12-08T06:31:15;17.15;;;7.83;;
26014;SDS011;13793;55.388;37.844;2022-12-08T06:33:46;21.05;;;9.00;;
26014;SDS011;13793;55.388;37.844;2022-12-08T06:36:18;17.30;;;8.70;;
26014;SDS011;13793;55.388;37.844;2022-12-08T06:38:50;18.23;;;8.75;;
26014;SDS011;13793;55.388;37.844;2022-12-08T06:41:21;16.83;;;9.03;;
26014;SDS011;13793;55.388;37.844;2022-12-08T06:43:54;16.27;;;7.78;;
26014;SDS011;13793;55.388;37.844;2022-12-08T06:46:26;15.73;;;8.07;;
26014;SDS011;13793;55.388;37.844;2022-12-08T06:48:57;14.03;;;8.48;;
26014;SDS011;13793;55.388;37.844;2022-12-08T06:51:28;15.73;;;7.77;;
26014;SDS011;13793;55.388;37.844;2022-12-08T06:53:59;20.43;;;7.70;;
26014;SDS011;13793;55.388;37.844;2022-12-08T06:56:30;16.87;;;7.60;;
26014;SDS011;13793;55.388;37.844;2022-12-08T06:59:02;15.87;;;8.40;;
26014;SDS011;13793;55.388;37.844;2022-12-08T07:01:32;14.73;;;7.90;;
26014;SDS011;13793;55.388;37.844;2022-12-08T07:04:03;19.10;;;7.97;;
26014;SDS011;13793;55.388;37.844;2022-12-08T07:06:34;16.57;;;8.60;;
26014;SDS011;13793;55.388;37.844;2022-12-08T07:09:04;16.93;;;8.15;;
26014;SDS011;13793;55.388;37.844;2022-12-08T07:11:36;23.40;;;9.33;;
26014;SDS011;13793;55.388;37.844;2022-12-08T07:14:07;15.60;;;8.20;;
26014;SDS011;13793;55.388;37.844;2022-12-08T07:16:38;15.90;;;8.63;;
26014;SDS011;13793;55.388;37.844;2022-12-08T07:19:09;15.70;;;7.77;;
26014;SDS011;13793;55.388;37.844;2022-12-08T07:21:40;14.37;;;8.37;;
26014;SDS011;13793;55.388;37.844;2022-12-08T07:24:10;14.67;;;7.60;;
26014;SDS011;13793;55.388;37.844;2022-12-08T07:26:41;26.33;;;8.93;;
26014;SDS011;13793;55.388;37.844;2022-12-08T07:29:13;16.13;;;8.03;;
26014;SDS011;13793;55.388;37.844;2022-12-08T07:31:43;15.43;;;7.80;;
26014;SDS011;13793;55.388;37.844;2022-12-08T07:34:14;17.70;;;8.60;;
26014;SDS011;13793;55.388;37.844;2022-12-08T07:36:44;15.47;;;8.47;;
26014;SDS011;13793;55.388;37.844;2022-12-08T07:39:15;16.23;;;8.13;;
26014;SDS011;13793;55.388;37.844;2022-12-08T07:41:46;14.97;;;8.00;;
26014;SDS011;13793;55.388;37.844;2022-12-08T07:44:16;14.27;;;8.00;;
26014;SDS011;13793;55.388;37.844;2022-12-08T07:46:47;14.20;;;7.10;;
26014;SDS011;13793;55.388;37.844;2022-12-08T07:49:17;15.07;;;7.83;;
26014;SDS011;13793;55.388;37.844;2022-12-08T07:51:51;14.70;;;8.90;;
26014;SDS011;13793;55.388;37.844;2022-12-08T07:54:22;16.50;;;7.33;;
26014;SDS011;13793;55.388;37.844;2022-12-08T07:56:55;17.37;;;8.83;;
26014;SDS011;13793;55.388;37.844;2022-12-08T07:59:26;18.13;;;7.70;;
26014;SDS011;13793;55.388;37.844;2022-12-08T08:01:56;13.70;;;7.93;;
26014;SDS011;13793;55.388;37.844;2022-12-08T08:04:27;15.77;;;9.20;;
26014;SDS011;13793;55.388;37.844;2022-12-08T08:06:57;17.37;;;8.93;;
26014;SDS011;13793;55.388;37.844;2022-12-08T08:09:28;15.43;;;8.47;;
26014;SDS011;13793;55.388;37.844;2022-12-08T08:11:58;12.73;;;7.90;;
26014;SDS011;13793;55.388;37.844;2022-12-08T08:14:29;15.20;;;8.43;;
26014;SDS011;13793;55.388;37.844;2022-12-08T08:16:59;15.23;;;8.70;;
26014;SDS011;13793;55.388;37.844;2022-12-08T08:19:30;17.93;;;8.97;;
26014;SDS011;13793;55.388;37.844;2022-12-08T08:22:01;17.30;;;8.87;;
26014;SDS011;13793;55.388;37.844;2022-12-08T08:24:32;17.33;;;8.77;;
26014;SDS011;13793;55.388;37.844;2022-12-08T08:27:02;14.43;;;8.47;;
26014;SDS011;13793;55.388;37.844;2022-12-08T08:29:33;16.63;;;9.50;;
26014;SDS011;13793;55.388;37.844;2022-12-08T08:32:04;16.37;;;8.83;;
26014;SDS011;13793;55.388;37.844;2022-12-08T08:34:35;19.50;;;8.87;;
26014;SDS011;13793;55.388;37.844;2022-12-08T08:37:05;18.07;;;8.87;;
26014;SDS011;13793;55.388;37.844;2022-12-08T08:39:36;16.90;;;9.40;;
26014;SDS011;13793;55.388;37.844;2022-12-08T08:42:07;16.90;;;8.60;;
26014;SDS011;13793;55.388;37.844;2022-12-08T08:44:37;14.30;;;8.60;;
26014;SDS011;13793;55.388;37.844;2022-12-08T08:47:08;16.77;;;8.90;;
26014;SDS011;13793;55.388;37.844;2022-12-08T08:49:39;14.87;;;8.20;;
26014;SDS011;13793;55.388;37.844;2022-12-08T08:52:10;13.80;;;8.63;;
26014;SDS011;13793;55.388;37.844;2022-12-08T08:54:40;17.17;;;9.17;;
26014;SDS011;13793;55.388;37.844;2022-12-08T08:57:11;14.03;;;7.70;;
26014;SDS011;13793;55.388;37.844;2022-12-08T08:59:42;16.87;;;9.57;;
26014;SDS011;13793;55.388;37.844;2022-12-08T09:02:15;16.90;;;9.07;;
26014;SDS011;13793;55.388;37.844;2022-12-08T09:04:47;20.93;;;9.87;;
26014;SDS011;13793;55.388;37.844;2022-12-08T09:07:17;17.63;;;9.13;;
26014;SDS011;13793;55.388;37.844;2022-12-08T09:09:51;18.27;;;10.07;;
26014;SDS011;13793;55.388;37.844;2022-12-08T09:12:22;19.20;;;9.87;;
26014;SDS011;13793;55.388;37.844;2022-12-08T09:14:53;19.23;;;10.00;;
26014;SDS011;13793;55.388;37.844;2022-12-08T09:17:24;17.93;;;10.07;;
26014;SDS011;13793;55.388;37.844;2022-12-08T09:19:54;16.57;;;9.90;;
26014;SDS011;13793;55.388;37.844;2022-12-08T09:22:25;19.13;;;9.57;;
26014;SDS011;13793;55.388;37.844;2022-12-08T09:24:55;19.23;;;9.70;;
26014;SDS011;13793;55.388;37.844;2022-12-08T09:27:26;19.70;;;9.93;;
26014;SDS011;13793;55.388;37.844;2022-12-08T09:29:56;16.70;;;9.67;;
26014;SDS011;13793;55.388;37.844;2022-12-08T09:32:28;16.97;;;10.10;;
26014;SDS011;13793;55.388;37.844;2022-12-08T09:34:59;18.07;;;9.97;;
26014;SDS011;13793;55.388;37.844;2022-12-08T09:37:29;18.90;;;10.33;;
26014;SDS011;13793;55.388;37.844;2022-12-08T09:40:00;18.03;;;10.77;;
26014;SDS011;13793;55.388;37.844;2022-12-08T09:45:20;18.37;;;9.63;;
26014;SDS011;13793;55.388;37.844;2022-12-08T09:50:48;20.47;;;10.73;;
26014;SDS011;13793;55.388;37.844;2022-12-08T09:53:24;21.50;;;11.03;;
26014;SDS011;13793;55.388;37.844;2022-12-08T09:56:05;19.90;;;10.73;;
26014;SDS011;13793;55.388;37.844;2022-12-08T09:58:56;20.33;;;10.70;;
26014;SDS011;13793;55.388;37.844;2022-12-08T10:01:34;20.40;;;10.63;;
26014;SDS011;13793;55.388;37.844;2022-12-08T10:04:27;17.73;;;10.17;;
26014;SDS011;13793;55.388;37.844;2022-12-08T10:10:03;18.13;;;10.27;;
26014;SDS011;13793;55.388;37.844;2022-12-08T10:12:40;18.60;;;10.10;;
26014;SDS011;13793;55.388;37.844;2022-12-08T10:18:15;19.65;;;11.10;;
26014;SDS011;13793;55.388;37.844;2022-12-08T10:20:47;20.03;;;11.23;;
26014;SDS011;13793;55.388;37.844;2022-12-08T10:25:58;21.10;;;10.50;;
26014;SDS011;13793;55.388;37.844;2022-12-08T10:28:27;17.50;;;10.00;;
26014;SDS011;13793;55.388;37.844;2022-12-08T10:30:57;17.37;;;10.13;;
26014;SDS011;13793;55.388;37.844;2022-12-08T10:33:29;21.30;;;10.23;;
26014;SDS011;13793;55.388;37.844;2022-12-08T10:36:00;22.30;;;11.43;;
26014;SDS011;13793;55.388;37.844;2022-12-08T10:38:35;24.40;;;10.70;;
26014;SDS011;13793;55.388;37.844;2022-12-08T10:43:45;16.47;;;9.73;;
26014;SDS011;13793;55.388;37.844;2022-12-08T10:46:20;18.57;;;10.03;;
26014;SDS011;13793;55.388;37.844;2022-12-08T10:48:54;19.90;;;9.47;;
26014;SDS011;13793;55.388;37.844;2022-12-08T10:51:27;21.03;;;9.93;;
26014;SDS011;13793;55.388;37.844;2022-12-08T10:53:58;19.83;;;10.30;;
26014;SDS011;13793;55.388;37.844;2022-12-08T10:56:29;16.83;;;10.27;;
26014;SDS011;13793;55.388;37.844;2022-12-08T10:59:20;18.60;;;10.60;;
26014;SDS011;13793;55.388;37.844;2022-12-08T11:01:47;20.20;;;10.17;;
26014;SDS011;13793;55.388;37.844;2022-12-08T11:04:33;20.13;;;10.57;;
26014;SDS011;13793;55.388;37.844;2022-12-08T11:07:04;23.87;;;9.53;;
26014;SDS011;13793;55.388;37.844;2022-12-08T11:09:36;21.10;;;10.20;;
26014;SDS011;13793;55.388;37.844;2022-12-08T11:12:17;18.43;;;9.40;;
26014;SDS011;13793;55.388;37.844;2022-12-08T11:14:49;18.40;;;9.83;;
26014;SDS011;13793;55.388;37.844;2022-12-08T11:19:56;19.57;;;10.50;;
26014;SDS011;13793;55.388;37.844;2022-12-08T11:22:44;18.73;;;9.63;;
26014;SDS011;13793;55.388;37.844;2022-12-08T11:25:20;17.53;;;9.57;;
26014;SDS011;13793;55.388;37.844;2022-12-08T11:27:56;22.43;;;9.77;;
26014;SDS011;13793;55.388;37.844;2022-12-08T11:30:33;20.90;;;10.67;;
26014;SDS011;13793;55.388;37.844;2022-12-08T11:33:13;18.97;;;10.20;;
26014;SDS011;13793;55.388;37.844;2022-12-08T11:36:04;18.93;;;10.07;;
26014;SDS011;13793;55.388;37.844;2022-12-08T11:38:39;20.97;;;10.47;;
26014;SDS011;13793;55.388;37.844;2022-12-08T11:41:09;17.90;;;10.17;;
26014;SDS011;13793;55.388;37.844;2022-12-08T11:43:53;17.65;;;9.83;;
26014;SDS011;13793;55.388;37.844;2022-12-08T11:46:51;17.43;;;9.27;;
26014;SDS011;13793;55.388;37.844;2022-12-08T11:49:35;19.83;;;10.57;;
26014;SDS011;13793;55.388;37.844;2022-12-08T11:52:10;21.60;;;10.37;;
26014;SDS011;13793;55.388;37.844;2022-12-08T11:57:49;20.53;;;10.17;;
26014;SDS011;13793;55.388;37.844;2022-12-08T12:00:20;17.70;;;9.73;;
26014;SDS011;13793;55.388;37.844;2022-12-08T12:02:53;20.67;;;10.90;;
26014;SDS011;13793;55.388;37.844;2022-12-08T12:05:38;20.23;;;10.30;;
26014;SDS011;13793;55.388;37.844;2022-12-08T12:10:54;19.10;;;10.23;;
26014;SDS011;13793;55.388;37.844;2022-12-08T12:13:35;19.47;;;9.10;;
26014;SDS011;13793;55.388;37.844;2022-12-08T12:16:29;21.73;;;10.37;;
26014;SDS011;13793;55.388;37.844;2022-12-08T12:19:14;17.43;;;9.67;;
26014;SDS011;13793;55.388;37.844;2022-12-08T12:21:52;21.67;;;11.17;;
26014;SDS011;13793;55.388;37.844;2022-12-08T12:24:19;18.27;;;9.47;;
26014;SDS011;13793;55.388;37.844;2022-12-08T12:26:59;21.03;;;10.33;;
26014;SDS011;13793;55.388;37.844;2022-12-08T12:29:31;17.87;;;9.73;;
26014;SDS011;13793;55.388;37.844;2022-12-08T12:32:06;20.57;;;10.77;;
26014;SDS011;13793;55.388;37.844;2022-12-08T12:34:45;16.60;;;10.23;;
26014;SDS011;13793;55.388;37.844;2022-12-08T12:37:17;21.87;;;10.67;;
26014;SDS011;13793;55.388;37.844;2022-12-08T12:40:00;19.80;;;9.97;;
26014;SDS011;13793;55.388;37.844;2022-12-08T12:42:42;18.87;;;10.00;;
26014;SDS011;13793;55.388;37.844;2022-12-08T12:55:59;19.27;;;10.48;;
26014;SDS011;13793;55.388;37.844;2022-12-08T13:03:44;23.27;;;11.03;;
26014;SDS011;13793;55.388;37.844;2022-12-08T13:06:21;23.33;;;11.60;;
26014;SDS011;13793;55.388;37.844;2022-12-08T13:08:57;18.92;;;10.65;;
26014;SDS011;13793;55.388;37.844;2022-12-08T13:11:27;17.10;;;9.77;;
26014;SDS011;13793;55.388;37.844;2022-12-08T13:14:03;20.73;;;10.47;;
26014;SDS011;13793;55.388;37.844;2022-12-08T13:16:31;20.73;;;11.10;;
26014;SDS011;13793;55.388;37.844;2022-12-08T13:19:03;20.27;;;10.97;;
26014;SDS011;13793;55.388;37.844;2022-12-08T13:21:37;22.57;;;11.07;;
26014;SDS011;13793;55.388;37.844;2022-12-08T13:26:48;23.27;;;11.43;;
26014;SDS011;13793;55.388;37.844;2022-12-08T13:29:20;24.30;;;11.50;;
26014;SDS011;13793;55.388;37.844;2022-12-08T13:37:41;21.63;;;11.63;;
26014;SDS011;13793;55.388;37.844;2022-12-08T13:40:17;22.90;;;11.70;;
26014;SDS011;13793;55.388;37.844;2022-12-08T13:42:58;24.20;;;11.73;;
26014;SDS011;13793;55.388;37.844;2022-12-08T13:45:29;25.63;;;12.30;;
26014;SDS011;13793;55.388;37.844;2022-12-08T13:48:04;20.40;;;11.30;;
26014;SDS011;13793;55.388;37.844;2022-12-08T13:50:46;23.27;;;12.10;;
26014;SDS011;13793;55.388;37.844;2022-12-08T13:53:20;22.17;;;11.27;;
26014;SDS011;13793;55.388;37.844;2022-12-08T13:55:56;28.43;;;11.70;;
26014;SDS011;13793;55.388;37.844;2022-12-08T13:58:28;24.97;;;11.30;;
26014;SDS011;13793;55.388;37.844;2022-12-08T14:01:18;22.23;;;12.17;;
26014;SDS011;13793;55.388;37.844;2022-12-08T14:03:51;20.87;;;11.73;;
26014;SDS011;13793;55.388;37.844;2022-12-08T14:08:59;20.00;;;10.67;;
26014;SDS011;13793;55.388;37.844;2022-12-08T14:11:37;23.20;;;11.73;;
26014;SDS011;13793;55.388;37.844;2022-12-08T14:14:12;25.07;;;13.00;;
26014;SDS011;13793;55.388;37.844;2022-12-08T14:16:49;24.53;;;11.80;;
26014;SDS011;13793;55.388;37.844;2022-12-08T14:19:30;23.37;;;12.13;;
26014;SDS011;13793;55.388;37.844;2022-12-08T14:22:15;23.07;;;12.37;;
26014;SDS011;13793;55.388;37.844;2022-12-08T14:24:47;23.13;;;12.93;;
26014;SDS011;13793;55.388;37.844;2022-12-08T14:27:20;22.07;;;12.03;;
26014;SDS011;13793;55.388;37.844;2022-12-08T14:29:55;22.90;;;12.47;;
26014;SDS011;13793;55.388;37.844;2022-12-08T14:37:41;24.83;;;12.80;;
26014;SDS011;13793;55.388;37.844;2022-12-08T14:40:23;25.03;;;12.97;;
26014;SDS011;13793;55.388;37.844;2022-12-08T14:48:23;26.70;;;13.23;;
26014;SDS011;13793;55.388;37.844;2022-12-08T14:51:15;27.77;;;12.63;;
26014;SDS011;13793;55.388;37.844;2022-12-08T14:54:06;24.37;;;12.50;;
26014;SDS011;13793;55.388;37.844;2022-12-08T14:56:38;24.63;;;13.33;;
26014;SDS011;13793;55.388;37.844;2022-12-08T14:59:32;21.20;;;12.37;;
26014;SDS011;13793;55.388;37.844;2022-12-08T15:04:59;26.00;;;13.30;;
26014;SDS011;13793;55.388;37.844;2022-12-08T15:07:46;26.85;;;13.22;;
26014;SDS011;13793;55.388;37.844;2022-12-08T15:10:21;25.02;;;13.55;;
26014;SDS011;13793;55.388;37.844;2022-12-08T15:13:18;26.40;;;13.40;;
26014;SDS011;13793;55.388;37.844;2022-12-08T15:15:47;23.53;;;13.60;;
26014;SDS011;13793;55.388;37.844;2022-12-08T15:18:29;24.13;;;13.73;;
26014;SDS011;13793;55.388;37.844;2022-12-08T15:21:07;26.90;;;13.93;;
26014;SDS011;13793;55.388;37.844;2022-12-08T15:23:48;25.17;;;13.77;;
26014;SDS011;13793;55.388;37.844;2022-12-08T15:28:53;30.87;;;15.30;;
26014;SDS011;13793;55.388;37.844;2022-12-08T15:31:23;31.63;;;15.17;;
26014;SDS011;13793;55.388;37.844;2022-12-08T15:33:54;26.70;;;13.27;;
26014;SDS011;13793;55.388;37.844;2022-12-08T15:36:25;28.63;;;15.70;;
26014;SDS011;13793;55.388;37.844;2022-12-08T15:38:56;29.53;;;14.90;;
26014;SDS011;13793;55.388;37.844;2022-12-08T15:41:26;28.00;;;14.70;;
26014;SDS011;13793;55.388;37.844;2022-12-08T15:43:57;29.77;;;15.47;;
26014;SDS011;13793;55.388;37.844;2022-12-08T15:46:28;25.33;;;13.97;;
26014;SDS011;13793;55.388;37.844;2022-12-08T15:48:59;29.87;;;14.67;;
26014;SDS011;13793;55.388;37.844;2022-12-08T15:51:30;25.47;;;14.30;;
26014;SDS011;13793;55.388;37.844;2022-12-08T15:54:02;25.67;;;14.07;;
26014;SDS011;13793;55.388;37.844;2022-12-08T15:56:33;28.20;;;14.97;;
26014;SDS011;13793;55.388;37.844;2022-12-08T15:59:04;30.70;;;14.57;;
26014;SDS011;13793;55.388;37.844;2022-12-08T16:01:37;29.87;;;14.30;;
26014;SDS011;13793;55.388;37.844;2022-12-08T16:04:07;29.60;;;14.90;;
26014;SDS011;13793;55.388;37.844;2022-12-08T16:06:44;28.62;;;14.87;;
26014;SDS011;13793;55.388;37.844;2022-12-08T16:09:20;28.53;;;14.93;;
26014;SDS011;13793;55.388;37.844;2022-12-08T16:11:52;32.33;;;15.58;;
26014;SDS011;13793;55.388;37.844;2022-12-08T16:14:41;29.40;;;14.97;;
26014;SDS011;13793;55.388;37.844;2022-12-08T16:17:13;35.33;;;16.67;;
26014;SDS011;13793;55.388;37.844;2022-12-08T16:19:45;33.80;;;17.10;;
26014;SDS011;13793;55.388;37.844;2022-12-08T16:22:25;31.57;;;16.37;;